createdAt,value
2023-05-14T00:01:55.715Z,100653.91
2023-05-14T00:10:50.117Z,100645.52
2023-05-14T00:16:45.242Z,100642.20
2023-05-14T00:22:37.189Z,100632.02
2023-05-14T00:31:33.422Z,100639.62
2023-05-14T00:34:19.532Z,100638.06
2023-05-14T00:37:06.113Z,100633.23
2023-05-14T00:42:31.358Z,100650.05
2023-05-14T00:45:27.648Z,100641.48
2023-05-14T00:48:13.370Z,100643.08
2023-05-14T00:50:58.873Z,100641.98
2023-05-14T01:13:10.163Z,100633.09
2023-05-14T01:15:57.080Z,100631.11
2023-05-14T01:18:43.481Z,100628.35
2023-05-14T01:21:42.172Z,100630.50
2023-05-14T01:34:05.771Z,100623.24
2023-05-14T01:40:01.065Z,100623.69
2023-05-14T01:52:39.764Z,100619.78
2023-05-14T01:58:27.574Z,100617.91
2023-05-14T02:01:14.081Z,100620.15
2023-05-14T02:04:00.895Z,100621.53
2023-05-14T02:09:33.273Z,100612.88
2023-05-14T02:12:18.468Z,100614.95
2023-05-14T02:15:04.011Z,100613.27
2023-05-14T02:17:49.485Z,100610.10
2023-05-14T02:20:34.591Z,100613.36
2023-05-14T02:26:30.053Z,100606.27
2023-05-14T02:29:16.450Z,100605.98
2023-05-14T02:32:05.151Z,100607.95
2023-05-14T02:34:49.948Z,100606.33
2023-05-14T02:37:35.233Z,100603.94
2023-05-14T02:40:20.275Z,100603.67
2023-05-14T02:43:05.586Z,100609.52
2023-05-14T02:55:35.412Z,100608.33
2023-05-14T02:58:20.712Z,100605.42
2023-05-14T03:03:51.034Z,100596.70
2023-05-14T03:06:36.926Z,100596.22
2023-05-14T03:09:22.179Z,100600.36
2023-05-14T03:15:11.502Z,100599.67
2023-05-14T03:21:27.783Z,100604.23
2023-05-14T03:30:28.228Z,100612.52
2023-05-14T03:33:14.034Z,100614.04
2023-05-14T03:35:59.333Z,100614.20
2023-05-14T03:38:44.387Z,100609.43
2023-05-14T03:41:29.543Z,100607.36
2023-05-14T03:44:15.073Z,100603.13
2023-05-14T03:49:43.394Z,100600.81
2023-05-14T03:52:28.740Z,100600.57
2023-05-14T03:58:22.798Z,100604.13
2023-05-14T04:01:08.215Z,100598.35
2023-05-14T04:07:21.503Z,100596.86
2023-05-14T04:13:00.277Z,100593.64
2023-05-14T04:15:46.864Z,100584.88
2023-05-14T04:25:03.755Z,100593.64
2023-05-14T04:30:59.178Z,100596.30
2023-05-14T04:33:44.402Z,100593.95
2023-05-14T04:36:30.647Z,100590.56
2023-05-14T04:39:16.028Z,100593.29
2023-05-14T04:42:01.437Z,100596.02
2023-05-14T04:44:46.473Z,100590.36
2023-05-14T04:47:32.134Z,100592.44
2023-05-14T04:50:21.700Z,100593.69
2023-05-14T04:53:10.796Z,100589.86
2023-05-14T04:55:57.753Z,100581.74
2023-05-14T04:58:43.387Z,100583.42
2023-05-14T05:01:28.399Z,100586.73
2023-05-14T05:04:14.918Z,100583.73
2023-05-14T05:07:01.781Z,100578.27
2023-05-14T05:09:48.087Z,100576.84
2023-05-14T05:12:34.748Z,100573.84
2023-05-14T05:15:19.793Z,100568.23
2023-05-14T05:18:45.815Z,100572.90
2023-05-14T05:21:31.693Z,100577.72
2023-05-14T05:27:10.658Z,100564.42
2023-05-14T05:29:55.733Z,100558.34
2023-05-14T05:38:57.608Z,100558.61
2023-05-14T05:41:43.761Z,100553.92
2023-05-14T05:44:29.211Z,100555.86
2023-05-14T05:50:14.807Z,100561.59
2023-05-14T05:53:01.607Z,100546.23
2023-05-14T05:55:46.554Z,100551.41
2023-05-14T05:58:31.681Z,100554.68
2023-05-14T06:04:10.620Z,100561.69
2023-05-14T06:07:34.821Z,100563.10
2023-05-14T06:10:26.610Z,100556.41
2023-05-14T06:13:11.774Z,100554.46
2023-05-14T06:15:56.866Z,100548.64
2023-05-14T06:25:00.973Z,100550.90
2023-05-14T06:38:01.283Z,100552.27
2023-05-14T06:40:46.339Z,100547.92
2023-05-14T06:52:33.285Z,100537.45
2023-05-14T06:58:10.468Z,100529.34
2023-05-14T07:00:56.251Z,100505.51
2023-05-14T07:10:25.412Z,100514.88
2023-05-14T07:26:11.377Z,100511.31
2023-05-14T07:28:57.215Z,100507.45
2023-05-14T07:31:42.333Z,100507.01
2023-05-14T07:34:27.575Z,100501.05
2023-05-14T07:37:12.916Z,100498.94
2023-05-14T07:39:58.551Z,100495.27
2023-05-14T07:42:43.948Z,100494.95
2023-05-14T07:45:29.165Z,100498.23
2023-05-14T07:48:14.917Z,100497.73
2023-05-14T07:51:00.247Z,100494.84
2023-05-14T07:53:45.194Z,100494.58
2023-05-14T07:56:33.232Z,100493.64
2023-05-14T07:59:18.566Z,100493.29
2023-05-14T08:02:05.290Z,100494.33
2023-05-14T08:04:51.928Z,100490.48
2023-05-14T08:07:39.112Z,100486.88
2023-05-14T08:10:24.822Z,100485.55
2023-05-14T08:13:10.523Z,100473.84
2023-05-14T08:15:55.906Z,100470.27
2023-05-14T08:18:41.420Z,100469.27
2023-05-14T08:41:00.534Z,100442.72
2023-05-14T08:46:39.772Z,100435.17
2023-05-14T08:49:40.987Z,100435.23
2023-05-14T08:55:53.539Z,100434.64
2023-05-14T09:19:30.876Z,100412.63
2023-05-14T09:25:41.106Z,100398.35
2023-05-14T09:41:00.491Z,100371.44
2023-05-14T09:46:53.884Z,100368.20
2023-05-14T09:52:33.175Z,100358.39
2023-05-14T09:55:19.851Z,100359.25
2023-05-14T10:04:28.501Z,100345.67
2023-05-14T10:07:13.968Z,100348.29
2023-05-14T10:12:46.262Z,100338.85
2023-05-14T10:21:44.878Z,100334.52
2023-05-14T10:24:32.942Z,100328.27
2023-05-14T10:27:20.970Z,100328.40
2023-05-14T10:30:12.078Z,100327.93
2023-05-14T10:33:08.575Z,100323.98
2023-05-14T10:54:01.670Z,100303.20
2023-05-14T10:56:47.228Z,100299.54
2023-05-14T10:59:33.599Z,100295.33
2023-05-14T11:05:16.466Z,100287.27
2023-05-14T11:08:07.488Z,100283.56
2023-05-14T11:14:10.228Z,100282.84
2023-05-14T11:19:51.076Z,100280.89
2023-05-14T11:25:32.423Z,100282.02
2023-05-14T11:56:55.341Z,100242.73
2023-05-14T11:59:40.864Z,100244.69
2023-05-14T12:02:29.860Z,100243.05
2023-05-14T12:05:15.406Z,100242.05
2023-05-14T12:08:01.187Z,100238.38
2023-05-14T12:10:46.864Z,100246.39
2023-05-14T12:13:36.032Z,100240.35
2023-05-14T12:16:21.593Z,100237.61
2023-05-14T12:19:12.439Z,100234.08
2023-05-14T12:22:03.125Z,100231.95
2023-05-14T12:24:58.640Z,100225.20
2023-05-14T12:27:45.144Z,100225.12
2023-05-14T12:30:39.254Z,100224.43
2023-05-14T12:33:27.458Z,100221.51
2023-05-14T12:49:35.144Z,100208.97
2023-05-14T12:52:33.315Z,100202.80
2023-05-14T12:55:25.372Z,100199.23
2023-05-14T12:58:10.732Z,100195.59
2023-05-14T13:00:56.260Z,100194.48
2023-05-14T13:03:41.804Z,100192.44
2023-05-14T13:06:27.473Z,100193.22
2023-05-14T13:09:13.054Z,100185.83
2023-05-14T13:11:58.739Z,100183.09
2023-05-14T13:14:44.152Z,100184.91
2023-05-14T13:17:31.671Z,100183.27
2023-05-14T13:20:18.256Z,100180.14
2023-05-14T13:23:03.346Z,100176.66
2023-05-14T13:25:50.034Z,100171.52
2023-05-14T13:28:35.712Z,100167.32
2023-05-14T13:31:21.000Z,100166.05
2023-05-14T13:34:06.371Z,100164.83
2023-05-14T13:36:52.374Z,100163.98
2023-05-14T13:39:37.830Z,100160.36
2023-05-14T13:42:23.205Z,100165.28
2023-05-14T13:45:12.194Z,100162.77
2023-05-14T13:47:57.966Z,100156.74
2023-05-14T13:50:43.745Z,100156.05
2023-05-14T13:53:30.920Z,100157.85
2023-05-14T14:09:03.806Z,100151.33
2023-05-14T14:11:53.337Z,100147.80
2023-05-14T14:14:38.933Z,100143.46
2023-05-14T14:17:24.426Z,100144.67
2023-05-14T14:20:13.058Z,100142.56
2023-05-14T14:22:58.947Z,100147.32
2023-05-14T14:25:44.220Z,100144.11
2023-05-14T14:28:30.220Z,100139.81
2023-05-14T14:31:17.430Z,100144.16
2023-05-14T14:34:03.457Z,100141.08
2023-05-14T14:36:48.694Z,100133.17
2023-05-14T14:50:57.694Z,100127.21
2023-05-14T14:53:43.179Z,100120.27
2023-05-14T14:56:28.644Z,100121.98
2023-05-14T14:59:13.824Z,100124.45
2023-05-14T15:01:59.267Z,100121.44
2023-05-14T15:04:45.074Z,100116.45
2023-05-14T15:07:35.601Z,100117.48
2023-05-14T15:10:20.778Z,100111.38
2023-05-14T15:13:09.107Z,100108.34
2023-05-14T15:15:57.262Z,100101.36
2023-05-14T15:18:42.751Z,100102.34
2023-05-14T15:21:28.217Z,100097.31
2023-05-14T15:40:22.471Z,100084.16
2023-05-14T15:43:09.623Z,100081.41
2023-05-14T15:49:10.474Z,100068.20
2023-05-14T15:51:56.361Z,100066.28
2023-05-14T15:54:42.042Z,100063.82
2023-05-14T15:57:27.752Z,100064.98
2023-05-14T16:00:14.035Z,100065.16
2023-05-14T16:02:59.915Z,100062.63
2023-05-14T16:05:46.526Z,100063.84
2023-05-14T16:08:31.691Z,100061.51
2023-05-14T16:11:21.063Z,100053.30
2023-05-14T16:20:44.126Z,100058.05
2023-05-14T16:23:30.252Z,100052.02
2023-05-14T16:26:15.583Z,100047.63
2023-05-14T16:29:01.276Z,100045.23
2023-05-14T17:22:28.491Z,100037.96
2023-05-14T17:25:16.229Z,100035.44
2023-05-14T17:28:01.856Z,100029.09
2023-05-14T17:30:47.278Z,100032.45
2023-05-14T17:33:33.930Z,100032.95
2023-05-14T17:43:55.155Z,100021.28
2023-05-14T17:46:41.984Z,100019.13
2023-05-14T17:49:27.520Z,100019.55
2023-05-14T17:52:16.070Z,100020.67
2023-05-14T18:04:47.612Z,100020.96
2023-05-14T18:10:41.735Z,100014.05
2023-05-14T18:13:29.453Z,100009.02
2023-05-14T18:16:18.438Z,100008.70
2023-05-14T18:19:04.445Z,100004.65
2023-05-14T18:21:51.204Z,100005.52
2023-05-14T18:24:36.272Z,100003.12
2023-05-14T18:27:21.550Z,99999.41
2023-05-14T18:30:14.089Z,100000.11
2023-05-14T18:32:59.806Z,100001.30
2023-05-14T18:35:48.792Z,99994.46
2023-05-14T18:38:34.227Z,99986.63
2023-05-14T18:41:19.500Z,99982.88
2023-05-14T18:44:05.152Z,99984.95
2023-05-14T18:46:50.790Z,99983.67
2023-05-14T18:52:51.993Z,99985.13
2023-05-14T18:55:39.811Z,99987.62
2023-05-14T18:58:25.656Z,99991.46
2023-05-14T19:01:11.184Z,99992.32
2023-05-14T19:03:57.070Z,99989.46
2023-05-14T19:06:42.827Z,99990.06
2023-05-14T19:09:28.310Z,99993.19
2023-05-14T19:12:35.011Z,100001.73
2023-05-14T19:21:52.757Z,99998.53
2023-05-14T19:24:43.115Z,99999.70
2023-05-14T19:27:28.817Z,99996.40
2023-05-14T19:30:14.588Z,99996.02
2023-05-14T19:33:00.210Z,99999.98
2023-05-14T19:35:47.118Z,100003.24
2023-05-14T19:38:32.871Z,100021.54
2023-05-14T19:41:18.393Z,100025.55
2023-05-14T19:44:07.035Z,100024.27
2023-05-14T19:46:52.592Z,100015.88
2023-05-14T19:49:37.808Z,99992.84
2023-05-14T19:52:23.067Z,99982.12
2023-05-14T19:55:10.588Z,99969.91
2023-05-14T19:57:57.494Z,99949.52
2023-05-14T20:01:16.478Z,99943.99
2023-05-14T20:04:01.843Z,99945.70
2023-05-14T20:06:47.527Z,99951.63
2023-05-14T20:09:32.708Z,99955.71
2023-05-14T20:12:18.138Z,99956.89
2023-05-14T20:15:05.399Z,99963.73
2023-05-14T20:17:53.367Z,99972.61
2023-05-14T20:20:39.657Z,99963.98
2023-05-14T20:23:25.214Z,99936.43
2023-05-14T20:26:10.492Z,99924.40
2023-05-14T20:28:56.399Z,99927.89
2023-05-14T20:31:41.655Z,99919.87
2023-05-14T20:34:26.921Z,99922.95
2023-05-14T20:37:12.509Z,99931.59
2023-05-14T20:40:02.435Z,99931.06
2023-05-14T20:42:50.376Z,99923.73
2023-05-14T20:45:43.799Z,99923.47
2023-05-14T20:48:29.596Z,99922.02
2023-05-14T20:51:22.201Z,99918.73
2023-05-14T20:54:07.652Z,99920.65
2023-05-14T20:56:53.465Z,99915.86
2023-05-14T20:59:43.045Z,99904.38
2023-05-14T21:02:33.705Z,99887.99
2023-05-14T21:05:20.553Z,99899.06
2023-05-14T21:08:08.792Z,99897.25
2023-05-14T21:10:54.198Z,99894.66
2023-05-14T21:13:40.451Z,99893.27
2023-05-14T21:16:25.843Z,99905.17
2023-05-14T21:19:13.207Z,99918.51
2023-05-14T21:21:59.652Z,99938.89
2023-05-14T21:24:45.179Z,99946.60
2023-05-14T21:27:30.652Z,99959.52
2023-05-14T21:30:16.231Z,99962.67
2023-05-14T21:33:01.881Z,99954.73
2023-05-14T21:35:49.140Z,99948.45
2023-05-14T21:38:34.719Z,99945.70
2023-05-14T21:41:22.451Z,99944.89
2023-05-14T21:44:07.632Z,99943.57
2023-05-14T21:46:52.796Z,99941.52
2023-05-14T21:49:38.197Z,99937.64
2023-05-14T21:52:23.549Z,99934.02
2023-05-14T21:55:27.208Z,99936.23
2023-05-14T21:58:14.474Z,99931.24
2023-05-14T22:00:59.880Z,99922.44
2023-05-14T22:03:45.553Z,99923.45
2023-05-14T22:06:32.170Z,99917.77
2023-05-14T22:09:17.518Z,99910.14
2023-05-14T22:12:29.120Z,99906.65
2023-05-14T22:15:14.736Z,99901.66
2023-05-14T22:18:07.863Z,99897.25
2023-05-14T22:20:53.631Z,99892.27
2023-05-14T22:23:38.916Z,99886.10
2023-05-14T22:26:24.284Z,99877.02
2023-05-14T22:29:09.971Z,99878.73
2023-05-14T22:31:55.410Z,99867.45
2023-05-14T22:34:41.339Z,99866.29
2023-05-14T22:37:26.920Z,99858.81
2023-05-14T22:40:13.946Z,99859.39
2023-05-14T22:42:59.409Z,99858.18
2023-05-14T22:45:45.197Z,99855.47
2023-05-14T22:48:30.882Z,99851.09
2023-05-14T22:51:16.503Z,99851.15
2023-05-14T23:07:09.705Z,99834.45
2023-05-14T23:09:55.290Z,99828.83
2023-05-14T23:12:40.973Z,99822.47
2023-05-14T23:21:59.180Z,99811.36
2023-05-14T23:24:44.741Z,99807.77
2023-05-14T23:27:30.322Z,99804.49
2023-05-14T23:30:16.109Z,99793.27
2023-05-14T23:33:01.494Z,99795.79
2023-05-14T23:35:48.103Z,99794.42
2023-05-14T23:38:35.921Z,99784.73
2023-05-14T23:41:21.214Z,99779.80
2023-05-14T23:44:09.643Z,99771.36
2023-05-14T23:46:55.833Z,99771.75
2023-05-14T23:49:41.307Z,99760.73
2023-05-14T23:52:26.803Z,99753.17
2023-05-14T23:55:13.201Z,99746.59
